Yengema Airport

Jump to: basic info | weather | comments

Related pages: nearby airports | nearby navaids | notams | map

Basic information (top)

Codes: WYE GFYE
Location: lon 8.610470, lat -11.045400, elev 1,300 ft / 396 m msl
Status: medium_airport
Scheduled airline service: yes
Links: Wikipedia Mobile

Weather (top)

Current conditions for Lungi International Airport 128nm (236km) W (rec'd 2014/08/01 12:30Z):

GFLL 011230Z 26006KT 9999 BKN014 FEW027CB 28/23 Q1015 RMK CB-NE

Airport forecast for Lungi International Airport 128nm (236km) W (rec'd 2014/08/01 12:00Z):

TAF GFLL 011000Z 0112/0218 08004KT 9000 -RA BKN009 
      TEMPO 0111/0119 26010KT 8000 BKN010 FEW027CB PROB30 
      TEMPO 0120/0204 12012KT 6000 TSRA BKN008 FEW026CB 
      BECMG 0208/0210 15006KT 8000 BKN010

Latest comments (top)

No comments yet for Yengema Airport

More... (top)

See also NOTAMs and nearby airports and navaids, or visit the Yengema Airport page at the main OurAirports website..